Ord, NE

11:22 PM CST on January 16, 2017 (GMT -0600)
Sharp | | Change Station

Elev 2070 ft 41.62 °N, 98.95 °W | Updated 29 minutes ago

Partly Cloudy
Partly Cloudy
26 °F
Feels Like 14 °F
N
15
Wind Variable Wind from NW

Today
High -- | Low -- °F
--% Chance of Precip.
Yesterday
High -- | Low -- °F
Precip. -- in
Pressure 30.09 in
Visibility 10.0 miles
Clouds Scattered Clouds 9000 ft
Windchill 14 °F
Dew Point 19 °F
Humidity 75%
Rainfall 0.18 in
Snow Depth Not available.
7:59 AM 5:32 PM
Waning Gibbous, 75% visible
METAR KODX 170453Z AUTO 32013KT 10SM SCT090 M03/M07 A3002 RMK AO2 SLP190 T10331072
Pressure 30.09 in
Visibility 10.0 miles
Clouds Scattered Clouds 9000 ft
Windchill 14 °F
Dew Point 19 °F
Humidity 75%
Rainfall 0.18 in
Snow Depth Not available.
7:59 AM 5:32 PM
Waning Gibbous, 75% visible
METAR KODX 170453Z AUTO 32013KT 10SM SCT090 M03/M07 A3002 RMK AO2 SLP190 T10331072

Get Your Daily Forecast Email!

Thanks for signing up!

Be on the lookout for a verification email in your inbox.

You'll start receiving the daily forecast at 8 AM.

×

10-Day Weather Forecast

Almanac

Astronomy

Jan. 16, 2017 Rise Set
Actual Time
Civil Twilight
Nautical Twilight
Astronomical Twilight
Moon
Length of Visible Light
Length of Day
Tomorrow will be .
, % of the Moon is Illuminated

Today's Extremes

State Highs State Lows

Community

WunderPhotos

Upload Photos

1,962,540 photos uploaded!

WunderBlog® & News

Nearby

Air Quality

  Air Quality AQ Index Pollutant
Not available.

Snow Depth

Station Depth Elevation

Earthquake Activity

City Distance Mag. Time & Date
Minimum magnitude displayed is 2.5.

Coastal Water Temperatures

Place Temperature

Stations

Nearby Weather Stations

Station Location Temp. Windchill Dew Point Humidity Wind Precip. Elev Updated Type
                   

Watches & Warnings

There are currently no watches in effect.